createdAt,value
2019-03-15T00:04:29.084Z,55.00
2019-03-15T00:06:56.434Z,55.00
2019-03-15T00:09:23.773Z,55.00
2019-03-15T00:11:51.341Z,55.40
2019-03-15T00:14:18.834Z,55.40
2019-03-15T00:16:46.241Z,55.40
2019-03-15T00:19:13.813Z,55.40
2019-03-15T00:21:41.209Z,54.80
2019-03-15T00:24:08.521Z,54.80
2019-03-15T00:26:38.729Z,55.40
2019-03-15T00:29:06.260Z,55.60
2019-03-15T00:31:33.743Z,55.40
2019-03-15T00:34:00.992Z,54.90
2019-03-15T00:36:28.400Z,54.90
2019-03-15T00:38:55.808Z,55.40
2019-03-15T00:41:23.194Z,55.40
2019-03-15T00:43:50.660Z,55.40
2019-03-15T00:46:18.094Z,55.10
2019-03-15T00:48:45.571Z,55.50
2019-03-15T00:51:12.979Z,55.30
2019-03-15T00:53:40.391Z,55.20
2019-03-15T00:56:07.688Z,55.80
2019-03-15T00:58:35.133Z,55.20
2019-03-15T01:01:02.477Z,56.60
2019-03-15T01:03:29.835Z,56.10
2019-03-15T01:05:57.244Z,56.20
2019-03-15T01:08:24.643Z,56.30
2019-03-15T01:10:52.212Z,56.60
2019-03-15T01:13:19.619Z,57.30
2019-03-15T01:15:47.085Z,56.50
2019-03-15T01:18:14.421Z,56.40
2019-03-15T01:20:41.913Z,55.60
2019-03-15T01:23:09.405Z,56.10
2019-03-15T01:25:36.809Z,56.00
2019-03-15T01:28:04.187Z,55.30
2019-03-15T01:30:31.580Z,55.80
2019-03-15T01:32:58.777Z,55.70
2019-03-15T01:35:26.287Z,55.70
2019-03-15T01:37:53.671Z,55.20
2019-03-15T01:40:21.147Z,55.20
2019-03-15T01:42:48.577Z,55.80
2019-03-15T01:45:16.041Z,55.80
2019-03-15T01:47:43.379Z,55.40
2019-03-15T01:50:10.729Z,56.30
2019-03-15T01:52:38.012Z,56.60
2019-03-15T01:55:05.975Z,55.90
2019-03-15T01:57:33.490Z,55.40
2019-03-15T02:00:00.863Z,56.20
2019-03-15T02:02:28.274Z,55.60
2019-03-15T02:04:55.690Z,55.60
2019-03-15T02:07:23.062Z,56.20
2019-03-15T02:09:50.386Z,55.60
2019-03-15T02:12:18.102Z,56.20
2019-03-15T02:14:45.469Z,55.40
2019-03-15T02:17:12.832Z,56.20
2019-03-15T02:19:40.253Z,55.50
2019-03-15T02:22:08.423Z,56.00
2019-03-15T02:24:35.965Z,55.40
2019-03-15T02:27:03.399Z,55.50
2019-03-15T02:29:30.752Z,56.20
2019-03-15T02:31:58.135Z,55.50
2019-03-15T02:34:25.481Z,56.30
2019-03-15T02:36:52.958Z,56.60
2019-03-15T02:39:20.292Z,55.70
2019-03-15T02:41:47.694Z,56.30
2019-03-15T02:44:15.060Z,56.50
2019-03-15T02:46:42.482Z,55.80
2019-03-15T02:49:10.201Z,55.80
2019-03-15T02:51:37.553Z,56.40
2019-03-15T02:54:04.861Z,55.90
2019-03-15T02:56:32.294Z,55.90
2019-03-15T02:58:59.705Z,56.50
2019-03-15T03:01:27.206Z,56.30
2019-03-15T03:03:54.558Z,55.90
2019-03-15T03:06:21.970Z,55.70
2019-03-15T03:08:49.352Z,55.80
2019-03-15T03:11:16.792Z,56.30
2019-03-15T03:13:44.263Z,56.30
2019-03-15T03:16:11.706Z,56.30
2019-03-15T03:18:39.001Z,56.30
2019-03-15T03:21:06.461Z,56.30
2019-03-15T03:23:33.977Z,55.80
2019-03-15T03:26:01.293Z,55.60
2019-03-15T03:28:28.738Z,56.20
2019-03-15T03:30:56.176Z,55.60
2019-03-15T03:33:23.577Z,55.50
2019-03-15T03:35:51.095Z,55.60
2019-03-15T03:38:18.475Z,55.50
2019-03-15T03:40:45.819Z,55.50
2019-03-15T03:43:13.238Z,56.00
2019-03-15T03:45:40.671Z,55.50
2019-03-15T03:48:08.502Z,56.80
2019-03-15T03:50:36.087Z,56.10
2019-03-15T03:53:03.506Z,55.50
2019-03-15T03:55:30.943Z,56.10
2019-03-15T03:57:58.405Z,56.80
2019-03-15T04:00:25.786Z,55.60
2019-03-15T04:02:53.496Z,57.10
2019-03-15T04:05:21.113Z,55.60
2019-03-15T04:07:48.517Z,55.60
2019-03-15T04:10:15.862Z,56.30
2019-03-15T04:12:43.307Z,56.20
2019-03-15T04:15:10.863Z,55.60
2019-03-15T04:17:38.395Z,56.10
2019-03-15T04:20:06.199Z,55.50
2019-03-15T04:22:33.598Z,56.00
2019-03-15T04:25:00.875Z,55.50
2019-03-15T04:27:28.204Z,55.50
2019-03-15T04:29:55.637Z,55.40
2019-03-15T04:32:23.228Z,56.20
2019-03-15T04:34:53.228Z,55.30
2019-03-15T04:37:22.877Z,55.80
2019-03-15T04:39:49.793Z,55.70
2019-03-15T04:42:17.247Z,55.20
2019-03-15T04:44:44.577Z,55.20
2019-03-15T04:47:11.855Z,56.50
2019-03-15T04:49:39.137Z,55.70
2019-03-15T04:52:06.456Z,55.10
2019-03-15T04:54:33.777Z,55.10
2019-03-15T04:57:01.169Z,55.00
2019-03-15T04:59:28.491Z,55.00
2019-03-15T05:01:55.834Z,55.00
2019-03-15T05:04:23.079Z,55.10
2019-03-15T05:06:50.600Z,55.10
2019-03-15T05:09:18.017Z,55.00
2019-03-15T05:11:45.711Z,54.90
2019-03-15T05:14:13.139Z,55.70
2019-03-15T05:16:40.489Z,54.80
2019-03-15T05:19:07.772Z,54.80
2019-03-15T05:21:35.111Z,55.30
2019-03-15T05:24:02.380Z,54.80
2019-03-15T05:26:29.823Z,55.20
2019-03-15T05:28:57.069Z,55.20
2019-03-15T05:31:24.401Z,54.70
2019-03-15T05:33:51.846Z,55.20
2019-03-15T05:36:19.370Z,55.10
2019-03-15T05:38:46.703Z,54.60
2019-03-15T05:41:13.990Z,55.10
2019-03-15T05:43:42.486Z,55.10
2019-03-15T05:46:09.758Z,55.20
2019-03-15T05:48:37.075Z,54.70
2019-03-15T05:51:06.325Z,54.60
2019-03-15T05:53:37.644Z,55.00
2019-03-15T05:56:06.126Z,55.10
2019-03-15T05:58:33.748Z,54.60
2019-03-15T06:01:21.116Z,54.50
2019-03-15T06:03:49.515Z,56.50
2019-03-15T06:06:17.006Z,55.20
2019-03-15T06:08:44.460Z,57.00
2019-03-15T06:11:11.831Z,56.50
2019-03-15T06:13:39.163Z,55.30
2019-03-15T06:16:06.626Z,55.90
2019-03-15T06:18:34.086Z,56.30
2019-03-15T06:21:01.542Z,55.70
2019-03-15T06:23:28.935Z,56.30
2019-03-15T06:25:56.254Z,55.80
2019-03-15T06:28:23.959Z,56.50
2019-03-15T06:30:51.443Z,56.50
2019-03-15T06:33:21.075Z,56.40
2019-03-15T06:35:48.538Z,57.80
2019-03-15T06:38:15.931Z,56.50
2019-03-15T06:40:43.346Z,56.80
2019-03-15T06:43:13.314Z,56.50
2019-03-15T06:45:41.855Z,56.40
2019-03-15T06:48:09.201Z,56.40
2019-03-15T06:50:36.678Z,56.20
2019-03-15T06:53:03.937Z,56.10
2019-03-15T06:55:33.279Z,57.10
2019-03-15T06:58:09.098Z,56.20
2019-03-15T07:00:36.522Z,56.10
2019-03-15T07:03:04.014Z,55.80
2019-03-15T07:05:32.099Z,56.40
2019-03-15T07:07:59.393Z,55.80
2019-03-15T07:10:26.765Z,55.90
2019-03-15T07:12:54.237Z,56.20
2019-03-15T07:15:21.597Z,56.20
2019-03-15T07:17:48.953Z,56.10
2019-03-15T07:20:16.363Z,56.00
2019-03-15T07:22:43.747Z,55.30
2019-03-15T07:25:11.597Z,55.80
2019-03-15T07:27:42.192Z,55.40
2019-03-15T07:30:09.247Z,56.70
2019-03-15T07:32:36.607Z,55.70
2019-03-15T07:35:03.986Z,55.70
2019-03-15T07:37:31.380Z,55.70
2019-03-15T07:39:58.811Z,55.20
2019-03-15T07:42:26.195Z,55.20
2019-03-15T07:44:53.631Z,55.80
2019-03-15T07:47:21.072Z,55.70
2019-03-15T07:49:48.514Z,55.70
2019-03-15T07:53:09.454Z,55.30
2019-03-15T07:55:36.839Z,55.40
2019-03-15T07:58:04.251Z,56.10
2019-03-15T08:00:31.703Z,56.10
2019-03-15T08:02:59.124Z,56.50
2019-03-15T08:05:26.641Z,56.10
2019-03-15T08:08:16.666Z,56.50
2019-03-15T08:10:46.800Z,56.30
2019-03-15T08:13:14.128Z,56.40
2019-03-15T08:15:41.610Z,56.60
2019-03-15T08:18:08.999Z,56.40
2019-03-15T08:20:36.425Z,56.70
2019-03-15T08:23:03.885Z,55.70
2019-03-15T08:25:31.236Z,56.50
2019-03-15T08:27:58.590Z,56.70
2019-03-15T08:30:25.990Z,56.60
2019-03-15T08:32:53.360Z,56.70
2019-03-15T08:35:24.193Z,56.70
2019-03-15T08:37:49.993Z,57.00
2019-03-15T08:40:17.529Z,56.40
2019-03-15T08:42:44.759Z,56.50
2019-03-15T08:45:12.740Z,57.30
2019-03-15T08:47:40.177Z,56.70
2019-03-15T08:50:15.336Z,57.40
2019-03-15T08:52:43.263Z,57.00
2019-03-15T08:55:10.662Z,58.40
2019-03-15T08:57:37.976Z,57.70
2019-03-15T09:00:06.790Z,57.70
2019-03-15T09:02:34.094Z,57.60
2019-03-15T09:05:01.448Z,57.70
2019-03-15T09:07:28.867Z,57.80
2019-03-15T09:09:56.537Z,58.00
2019-03-15T09:12:23.869Z,57.40
2019-03-15T09:14:51.315Z,58.00
2019-03-15T09:17:20.017Z,57.90
2019-03-15T09:19:47.710Z,58.20
2019-03-15T09:22:37.823Z,57.30
2019-03-15T09:25:18.053Z,57.60
2019-03-15T09:27:34.260Z,58.10
2019-03-15T09:30:01.713Z,58.30
2019-03-15T09:32:29.073Z,58.20
2019-03-15T09:34:56.559Z,57.40
2019-03-15T09:37:24.039Z,57.90
2019-03-15T09:39:52.218Z,57.90
2019-03-15T09:42:19.652Z,57.40
2019-03-15T09:44:47.038Z,57.40
2019-03-15T09:47:14.363Z,57.60
2019-03-15T09:49:41.814Z,57.30
2019-03-15T09:52:09.217Z,58.00
2019-03-15T09:54:36.673Z,57.90
2019-03-15T09:57:03.975Z,58.00
2019-03-15T09:59:31.320Z,58.50
2019-03-15T10:02:00.217Z,58.20
2019-03-15T10:04:27.598Z,57.90
2019-03-15T10:06:54.889Z,59.30
2019-03-15T10:09:22.265Z,58.20
2019-03-15T10:11:50.166Z,59.60
2019-03-15T10:14:17.549Z,58.30
2019-03-15T10:16:45.359Z,58.80
2019-03-15T10:19:12.954Z,58.80
2019-03-15T10:21:40.461Z,58.90
2019-03-15T10:24:08.378Z,57.80
2019-03-15T10:26:36.261Z,59.30
2019-03-15T10:29:14.639Z,58.70
2019-03-15T10:31:51.321Z,58.20
2019-03-15T10:34:18.661Z,58.10
2019-03-15T10:36:45.990Z,58.10
2019-03-15T10:39:13.410Z,58.60
2019-03-15T10:41:40.821Z,59.90
2019-03-15T10:44:08.280Z,59.00
2019-03-15T10:46:35.605Z,58.60
2019-03-15T10:49:03.101Z,58.20
2019-03-15T10:51:30.475Z,58.80
2019-03-15T10:53:57.909Z,59.00
2019-03-15T10:56:25.436Z,59.00
2019-03-15T10:58:52.754Z,59.10
2019-03-15T11:01:20.082Z,58.90
2019-03-15T11:03:47.421Z,58.80
2019-03-15T11:06:17.567Z,59.50
2019-03-15T11:08:46.177Z,59.40
2019-03-15T11:11:13.500Z,60.40
2019-03-15T11:13:40.866Z,59.10
2019-03-15T11:16:08.188Z,60.30
2019-03-15T11:18:35.716Z,60.90
2019-03-15T11:21:03.134Z,59.80
2019-03-15T11:23:30.475Z,59.90
2019-03-15T11:25:57.851Z,60.60
2019-03-15T11:28:25.299Z,61.00
2019-03-15T11:30:52.629Z,60.30
2019-03-15T11:33:20.017Z,60.60
2019-03-15T11:35:47.290Z,60.50
2019-03-15T11:38:16.232Z,60.70
2019-03-15T11:40:43.506Z,60.70
2019-03-15T11:43:12.723Z,61.40
2019-03-15T11:45:41.934Z,60.90
2019-03-15T11:48:09.417Z,60.90
2019-03-15T11:50:36.855Z,60.90
2019-03-15T11:53:04.154Z,60.80
2019-03-15T11:55:31.567Z,61.20
2019-03-15T11:57:58.926Z,61.20
2019-03-15T12:00:26.266Z,60.50
2019-03-15T12:02:53.768Z,61.40
2019-03-15T12:05:22.021Z,61.40
2019-03-15T12:07:49.309Z,61.30
2019-03-15T12:10:16.644Z,61.40
2019-03-15T12:12:44.073Z,61.40
2019-03-15T12:15:11.764Z,62.00
2019-03-15T12:17:39.263Z,61.30
2019-03-15T12:20:12.887Z,61.80
2019-03-15T12:22:40.293Z,61.70
2019-03-15T12:25:07.827Z,59.80
2019-03-15T12:27:35.203Z,62.30
2019-03-15T12:30:02.771Z,62.40
2019-03-15T12:32:30.062Z,63.10
2019-03-15T12:35:02.751Z,62.70
2019-03-15T12:37:30.230Z,62.70
2019-03-15T12:39:57.568Z,62.70
2019-03-15T12:42:24.933Z,62.70
2019-03-15T12:44:52.281Z,62.90
2019-03-15T12:47:19.719Z,63.30
2019-03-15T12:49:47.070Z,63.00
2019-03-15T12:52:14.376Z,63.10
2019-03-15T12:54:41.834Z,64.00
2019-03-15T12:57:09.252Z,63.30
2019-03-15T12:59:36.662Z,64.00
2019-03-15T13:02:04.147Z,63.20
2019-03-15T13:04:31.682Z,62.30
2019-03-15T13:06:59.122Z,63.90
2019-03-15T13:09:26.813Z,63.00
2019-03-15T13:11:54.213Z,63.00
2019-03-15T13:14:21.617Z,63.00
2019-03-15T13:16:48.969Z,63.50
2019-03-15T13:19:16.300Z,63.00
2019-03-15T13:21:43.666Z,63.30
2019-03-15T13:24:11.095Z,63.20
2019-03-15T13:26:38.493Z,63.10
2019-03-15T13:29:06.821Z,63.10
2019-03-15T13:31:34.106Z,63.20
2019-03-15T13:34:01.625Z,63.30
2019-03-15T13:36:28.918Z,63.10
2019-03-15T13:38:56.290Z,63.30
2019-03-15T13:41:23.659Z,63.20
2019-03-15T13:43:50.994Z,63.10
2019-03-15T13:46:18.447Z,63.10
2019-03-15T13:48:45.775Z,62.80
2019-03-15T13:51:13.149Z,63.70
2019-03-15T13:53:40.573Z,63.00
2019-03-15T13:56:07.887Z,63.90
2019-03-15T13:58:35.363Z,63.10
2019-03-15T14:01:02.787Z,63.10
2019-03-15T14:03:30.154Z,63.00
2019-03-15T14:05:57.460Z,63.10
2019-03-15T14:08:24.895Z,64.10
2019-03-15T14:10:52.409Z,63.30
2019-03-15T14:13:19.808Z,63.20
2019-03-15T14:15:47.175Z,64.20
2019-03-15T14:18:14.643Z,63.50
2019-03-15T14:20:42.546Z,63.00
2019-03-15T14:23:10.158Z,63.70
2019-03-15T14:25:37.572Z,66.10
2019-03-15T14:28:04.878Z,63.90
2019-03-15T14:30:32.334Z,63.10
2019-03-15T14:32:59.707Z,65.20
2019-03-15T14:35:27.204Z,63.10
2019-03-15T14:37:54.807Z,63.20
2019-03-15T14:40:22.523Z,63.70
2019-03-15T14:42:50.267Z,63.40
2019-03-15T14:45:17.714Z,63.30
2019-03-15T14:47:45.078Z,63.40
2019-03-15T14:50:12.718Z,64.20
2019-03-15T14:52:40.189Z,63.40
2019-03-15T14:55:07.580Z,63.40
2019-03-15T14:57:34.884Z,63.40
2019-03-15T15:00:02.336Z,63.50
2019-03-15T15:02:29.784Z,63.30
2019-03-15T15:04:57.270Z,63.40
2019-03-15T15:07:24.611Z,63.60
2019-03-15T15:09:52.104Z,63.70
2019-03-15T15:12:19.515Z,63.80
2019-03-15T15:14:47.552Z,63.80
2019-03-15T15:17:14.876Z,63.70
2019-03-15T15:19:42.253Z,64.10
2019-03-15T15:22:09.674Z,64.00
2019-03-15T15:24:37.088Z,64.00
2019-03-15T15:27:04.480Z,64.00
2019-03-15T15:29:31.968Z,64.00
2019-03-15T15:31:59.506Z,64.20
2019-03-15T15:34:26.825Z,64.20
2019-03-15T15:36:54.255Z,64.90
2019-03-15T15:39:21.579Z,64.30
2019-03-15T15:41:49.021Z,64.50
2019-03-15T15:44:16.378Z,64.50
2019-03-15T15:46:43.737Z,64.50
2019-03-15T15:49:11.071Z,65.80
2019-03-15T15:51:38.485Z,64.80
2019-03-15T15:54:05.929Z,65.10
2019-03-15T15:56:33.281Z,64.70
2019-03-15T15:59:02.974Z,64.90
2019-03-15T16:01:29.856Z,64.70
2019-03-15T16:03:58.300Z,64.90
2019-03-15T16:06:25.786Z,64.60
2019-03-15T16:08:53.233Z,65.00
2019-03-15T16:11:20.732Z,64.70
2019-03-15T16:13:48.191Z,64.70
2019-03-15T16:16:15.520Z,63.90
2019-03-15T16:18:42.863Z,64.80
2019-03-15T16:21:10.409Z,65.00
2019-03-15T16:23:37.879Z,64.80
2019-03-15T16:26:05.355Z,65.70
2019-03-15T16:28:36.012Z,64.90
2019-03-15T16:31:02.041Z,65.50
2019-03-15T16:33:29.486Z,64.80
2019-03-15T16:35:56.815Z,64.80
2019-03-15T16:38:24.305Z,64.80
2019-03-15T16:40:51.741Z,64.90
2019-03-15T16:43:25.988Z,64.70
2019-03-15T16:45:53.292Z,64.90
2019-03-15T16:48:20.722Z,65.00
2019-03-15T16:50:48.073Z,64.90
2019-03-15T16:53:16.998Z,65.00
2019-03-15T16:55:50.301Z,65.60
2019-03-15T16:58:17.889Z,63.30
2019-03-15T17:00:45.824Z,65.10
2019-03-15T17:03:33.196Z,65.10
2019-03-15T17:06:00.583Z,63.50
2019-03-15T17:08:28.422Z,66.40
2019-03-15T17:10:56.190Z,65.10
2019-03-15T17:13:31.149Z,65.40
2019-03-15T17:16:40.778Z,65.30
2019-03-15T17:20:12.063Z,66.90
2019-03-15T17:32:00.601Z,65.20
2019-03-15T17:41:30.362Z,65.40
2019-03-15T17:47:37.675Z,65.50
2019-03-15T17:50:23.229Z,65.50
2019-03-15T17:53:15.688Z,65.60
2019-03-15T17:56:10.925Z,65.60
2019-03-15T17:58:48.391Z,65.40
2019-03-15T18:01:28.423Z,65.50
2019-03-15T18:07:50.337Z,65.50
2019-03-15T18:13:03.654Z,65.40
2019-03-15T18:15:32.178Z,65.40
2019-03-15T18:18:00.251Z,66.20
2019-03-15T18:20:30.621Z,66.40
2019-03-15T18:23:18.833Z,66.30
2019-03-15T18:25:46.244Z,65.10
2019-03-15T18:28:13.747Z,66.90
2019-03-15T18:30:41.271Z,65.50
2019-03-15T18:33:11.714Z,66.00
2019-03-15T18:35:39.150Z,65.70
2019-03-15T18:38:09.961Z,66.40
2019-03-15T18:41:03.065Z,63.20
2019-03-15T18:43:32.855Z,63.60
2019-03-15T18:46:00.836Z,65.90
2019-03-15T18:51:22.729Z,66.30
2019-03-15T18:53:55.975Z,65.10
2019-03-15T18:56:43.315Z,65.50
2019-03-15T18:59:11.030Z,66.10
2019-03-15T19:01:42.164Z,65.20
2019-03-15T19:04:18.842Z,63.60
2019-03-15T19:10:27.053Z,64.50
2019-03-15T19:12:58.009Z,64.20
2019-03-15T19:15:25.488Z,62.50
2019-03-15T19:17:53.178Z,64.70
2019-03-15T19:20:23.682Z,64.40
2019-03-15T19:22:51.086Z,64.20
2019-03-15T19:25:18.542Z,64.20
2019-03-15T19:27:46.099Z,66.10
2019-03-15T19:30:16.509Z,65.60
2019-03-15T19:32:46.835Z,64.10
2019-03-15T19:35:16.921Z,65.20
2019-03-15T19:37:44.383Z,64.10
2019-03-15T19:40:15.809Z,63.80
2019-03-15T19:42:45.567Z,63.80
2019-03-15T19:45:13.085Z,63.50
2019-03-15T19:47:40.486Z,63.60
2019-03-15T19:50:10.880Z,63.60
2019-03-15T19:52:38.264Z,64.20
2019-03-15T19:55:06.251Z,63.10
2019-03-15T19:57:33.728Z,63.30
2019-03-15T20:00:07.779Z,63.00
2019-03-15T20:02:30.541Z,63.00
2019-03-15T20:04:58.023Z,62.90
2019-03-15T20:07:25.485Z,62.80
2019-03-15T20:09:52.934Z,62.60
2019-03-15T20:12:27.025Z,62.50
2019-03-15T20:14:54.445Z,62.40
2019-03-15T20:17:21.818Z,62.20
2019-03-15T20:19:49.307Z,62.20
2019-03-15T20:22:16.797Z,62.10
2019-03-15T20:24:51.378Z,62.90
2019-03-15T20:27:18.998Z,63.90
2019-03-15T20:29:46.560Z,61.70
2019-03-15T20:32:14.034Z,61.70
2019-03-15T20:34:41.433Z,61.70
2019-03-15T20:37:08.887Z,61.50
2019-03-15T20:39:36.302Z,61.50
2019-03-15T20:42:03.737Z,61.50
2019-03-15T20:44:31.199Z,61.50
2019-03-15T20:46:58.684Z,61.20
2019-03-15T20:49:26.242Z,61.00
2019-03-15T20:51:54.375Z,60.90
2019-03-15T20:54:21.950Z,60.90
2019-03-15T20:56:49.354Z,62.20
2019-03-15T20:59:16.770Z,60.80
2019-03-15T21:01:44.295Z,61.10
2019-03-15T21:04:11.893Z,61.10
2019-03-15T21:06:59.188Z,60.60
2019-03-15T21:09:33.845Z,60.60
2019-03-15T21:12:52.191Z,59.20
2019-03-15T21:15:20.531Z,58.50
2019-03-15T21:17:48.013Z,60.30
2019-03-15T21:20:15.429Z,60.40
2019-03-15T21:22:42.883Z,60.00
2019-03-15T21:25:10.515Z,60.00
2019-03-15T21:27:37.957Z,59.90
2019-03-15T21:30:07.739Z,60.00
2019-03-15T21:32:36.491Z,60.80
2019-03-15T21:35:04.360Z,59.40
2019-03-15T21:37:34.651Z,59.80
2019-03-15T21:40:53.128Z,59.60
2019-03-15T21:44:28.446Z,59.80
2019-03-15T21:47:10.455Z,59.80
2019-03-15T21:49:37.937Z,59.50
2019-03-15T21:52:05.353Z,59.60
2019-03-15T21:54:32.936Z,59.60
2019-03-15T21:57:00.340Z,59.60
2019-03-15T21:59:28.785Z,59.50
2019-03-15T22:01:57.107Z,59.60
2019-03-15T22:04:24.567Z,60.00
2019-03-15T22:06:52.098Z,59.70
2019-03-15T22:09:42.184Z,59.70
2019-03-15T22:12:09.637Z,58.10
2019-03-15T22:14:38.453Z,60.60
2019-03-15T22:17:14.962Z,59.70
2019-03-15T22:19:42.521Z,59.70
2019-03-15T22:22:10.374Z,59.80
2019-03-15T22:24:59.934Z,59.70
2019-03-15T22:27:29.672Z,59.30
2019-03-15T22:30:03.888Z,60.30
2019-03-15T22:32:31.443Z,59.30
2019-03-15T22:34:59.033Z,59.30
2019-03-15T22:37:26.648Z,59.30
2019-03-15T22:40:02.718Z,59.30
2019-03-15T22:42:30.237Z,59.40
2019-03-15T22:44:57.639Z,60.90
2019-03-15T22:47:26.600Z,59.50
2019-03-15T22:49:54.035Z,59.40
2019-03-15T22:52:24.261Z,59.50
2019-03-15T22:54:51.732Z,59.50
2019-03-15T22:57:19.065Z,59.50
2019-03-15T22:59:46.835Z,59.40
2019-03-15T23:02:14.710Z,59.40
2019-03-15T23:04:42.096Z,59.50
2019-03-15T23:07:09.528Z,59.40
2019-03-15T23:09:36.904Z,59.40
2019-03-15T23:12:04.463Z,59.40
2019-03-15T23:14:34.705Z,59.30
2019-03-15T23:17:02.134Z,59.30
2019-03-15T23:19:29.494Z,59.40
2019-03-15T23:21:56.871Z,59.80
2019-03-15T23:24:46.950Z,59.40
2019-03-15T23:27:14.454Z,59.40
2019-03-15T23:29:41.898Z,59.30
2019-03-15T23:32:09.836Z,59.70
2019-03-15T23:34:37.297Z,59.80
2019-03-15T23:37:04.657Z,59.20
2019-03-15T23:39:34.045Z,59.20
2019-03-15T23:42:01.645Z,59.10
2019-03-15T23:44:29.389Z,59.20
2019-03-15T23:46:59.397Z,59.20
2019-03-15T23:49:26.934Z,59.60
2019-03-15T23:51:54.358Z,59.70
2019-03-15T23:54:21.724Z,59.00
2019-03-15T23:56:49.168Z,59.10
2019-03-15T23:59:16.538Z,59.10
